createdAt,value
2018-06-22T00:01:58.970Z,9.80
2018-06-22T00:04:26.490Z,9.70
2018-06-22T00:06:54.042Z,9.80
2018-06-22T00:09:21.590Z,9.80
2018-06-22T00:11:49.224Z,9.80
2018-06-22T00:14:16.688Z,9.70
2018-06-22T00:16:44.228Z,9.70
2018-06-22T00:19:11.762Z,9.70
2018-06-22T00:21:39.332Z,9.70
2018-06-22T00:24:06.888Z,9.70
2018-06-22T00:26:34.448Z,9.60
2018-06-22T00:29:01.975Z,9.60
2018-06-22T00:31:29.541Z,9.60
2018-06-22T00:33:57.080Z,9.60
2018-06-22T00:36:24.617Z,9.60
2018-06-22T00:38:52.132Z,9.70
2018-06-22T00:41:19.673Z,9.60
2018-06-22T00:43:47.216Z,9.60
2018-06-22T00:46:14.753Z,9.60
2018-06-22T00:48:42.272Z,9.60
2018-06-22T00:51:09.808Z,9.50
2018-06-22T00:53:48.717Z,9.50
2018-06-22T00:56:16.265Z,9.40
2018-06-22T00:58:43.785Z,9.30
2018-06-22T01:01:11.348Z,9.30
2018-06-22T01:03:38.905Z,9.40
2018-06-22T01:06:06.620Z,9.30
2018-06-22T01:08:34.167Z,9.20
2018-06-22T01:11:01.732Z,9.20
2018-06-22T01:13:29.273Z,9.20
2018-06-22T01:15:57.176Z,9.20
2018-06-22T01:18:24.708Z,9.00
2018-06-22T01:20:52.288Z,9.10
2018-06-22T01:23:19.833Z,9.00
2018-06-22T01:25:47.463Z,8.90
2018-06-22T01:28:15.018Z,8.70
2018-06-22T01:30:42.593Z,8.80
2018-06-22T01:33:10.129Z,8.70
2018-06-22T01:35:37.693Z,8.60
2018-06-22T01:38:05.241Z,8.70
2018-06-22T01:40:32.816Z,8.70
2018-06-22T01:43:00.348Z,8.70
2018-06-22T01:45:27.881Z,8.80
2018-06-22T01:47:55.450Z,8.80
2018-06-22T01:50:22.988Z,8.70
2018-06-22T01:52:50.555Z,8.60
2018-06-22T01:55:18.117Z,8.50
2018-06-22T01:57:45.668Z,8.60
2018-06-22T02:02:40.716Z,8.60
2018-06-22T02:05:08.257Z,8.50
2018-06-22T02:07:35.828Z,8.40
2018-06-22T02:10:03.438Z,8.20
2018-06-22T02:12:31.009Z,8.10
2018-06-22T02:14:58.574Z,8.10
2018-06-22T02:17:26.142Z,8.20
2018-06-22T02:19:53.692Z,8.10
2018-06-22T02:22:21.241Z,8.00
2018-06-22T02:24:48.790Z,8.00
2018-06-22T02:27:16.380Z,7.90
2018-06-22T02:32:11.420Z,7.90
2018-06-22T02:34:38.969Z,7.80
2018-06-22T02:39:34.045Z,7.70
2018-06-22T02:42:01.605Z,7.80
2018-06-22T02:44:30.188Z,7.80
2018-06-22T02:46:57.746Z,7.80
2018-06-22T02:49:26.069Z,7.70
2018-06-22T02:51:53.623Z,7.90
2018-06-22T02:54:21.168Z,7.90
2018-06-22T02:56:48.744Z,7.90
2018-06-22T02:59:16.674Z,7.90
2018-06-22T03:01:44.281Z,8.10
2018-06-22T03:04:11.823Z,8.10
2018-06-22T03:09:08.636Z,8.20
2018-06-22T03:11:36.304Z,8.20
2018-06-22T03:14:03.888Z,8.20
2018-06-22T03:16:31.478Z,8.10
2018-06-22T03:18:59.005Z,8.30
2018-06-22T03:21:26.528Z,8.30
2018-06-22T03:23:54.068Z,8.40
2018-06-22T03:26:21.613Z,8.40
2018-06-22T03:28:49.147Z,8.40
2018-06-22T03:31:16.689Z,8.50
2018-06-22T03:33:44.776Z,8.60
2018-06-22T03:36:12.346Z,8.70
2018-06-22T03:38:39.892Z,8.70
2018-06-22T03:41:07.404Z,8.90
2018-06-22T03:43:34.970Z,8.90
2018-06-22T03:46:02.499Z,9.00
2018-06-22T03:48:30.233Z,9.10
2018-06-22T03:51:07.319Z,9.20
2018-06-22T03:53:58.320Z,9.10
2018-06-22T03:56:50.064Z,9.20
2018-06-22T03:59:20.910Z,9.30
2018-06-22T04:01:53.300Z,9.40
2018-06-22T04:04:25.467Z,9.50
2018-06-22T04:06:57.422Z,9.60
2018-06-22T04:09:40.463Z,9.60
2018-06-22T04:12:12.004Z,9.70
2018-06-22T04:14:52.567Z,9.80
2018-06-22T04:17:51.237Z,9.80
2018-06-22T04:20:24.442Z,9.70
2018-06-22T04:25:24.442Z,9.60
2018-06-22T04:28:11.044Z,9.50
2018-06-22T04:30:38.636Z,9.50
2018-06-22T04:33:12.715Z,9.40
2018-06-22T04:35:43.457Z,9.50
2018-06-22T04:38:18.448Z,9.50
2018-06-22T04:40:46.688Z,9.60
2018-06-22T04:43:18.289Z,9.80
2018-06-22T04:45:51.142Z,10.00
2018-06-22T04:48:21.247Z,9.90
2018-06-22T04:50:48.904Z,10.10
2018-06-22T04:53:16.452Z,10.10
2018-06-22T04:55:44.134Z,10.10
2018-06-22T04:58:18.347Z,10.10
2018-06-22T05:00:54.943Z,10.40
2018-06-22T05:03:25.483Z,10.50
2018-06-22T05:06:06.626Z,10.60
2018-06-22T05:08:58.582Z,10.40
2018-06-22T05:11:51.786Z,10.40
2018-06-22T05:14:24.591Z,10.50
2018-06-22T05:17:14.595Z,10.50
2018-06-22T05:19:49.645Z,10.40
2018-06-22T05:22:40.544Z,10.50
2018-06-22T05:25:13.075Z,10.50
2018-06-22T05:32:55.249Z,10.50
2018-06-22T05:38:00.098Z,10.40
2018-06-22T05:44:13.997Z,10.50
2018-06-22T05:46:53.706Z,10.50
2018-06-22T05:49:37.221Z,10.60
2018-06-22T05:53:22.609Z,10.70
2018-06-22T05:59:48.850Z,10.90
2018-06-22T06:02:17.136Z,11.00
2018-06-22T06:04:52.833Z,11.10
2018-06-22T06:08:11.062Z,11.20
2018-06-22T06:26:24.675Z,11.60
2018-06-22T06:29:08.080Z,11.80
2018-06-22T06:36:51.280Z,11.90
2018-06-22T06:39:27.257Z,11.70
2018-06-22T06:45:56.231Z,11.90
2018-06-22T06:53:33.919Z,12.00
2018-06-22T06:56:01.533Z,12.20
2018-06-22T06:58:29.356Z,12.40
2018-06-22T07:00:57.026Z,12.60
2018-06-22T07:03:24.602Z,12.60
2018-06-22T07:05:52.320Z,12.50
2018-06-22T07:08:19.902Z,12.40
2018-06-22T07:10:47.609Z,12.40
2018-06-22T07:13:15.503Z,12.80
2018-06-22T07:15:43.149Z,12.70
2018-06-22T07:18:10.712Z,12.80
2018-06-22T07:20:38.582Z,12.80
2018-06-22T07:23:07.388Z,12.70
2018-06-22T07:25:35.088Z,12.70
2018-06-22T07:28:02.618Z,13.00
2018-06-22T07:30:30.168Z,12.90
2018-06-22T07:32:57.708Z,12.70
2018-06-22T07:35:25.261Z,12.70
2018-06-22T07:37:53.761Z,12.90
2018-06-22T07:40:21.320Z,13.00
2018-06-22T07:42:48.840Z,13.30
2018-06-22T07:45:16.368Z,13.40
2018-06-22T07:47:43.881Z,13.70
2018-06-22T07:50:11.409Z,13.90
2018-06-22T07:52:38.946Z,13.50
2018-06-22T07:55:06.514Z,13.60
2018-06-22T07:57:34.013Z,13.60
2018-06-22T08:00:01.553Z,13.60
2018-06-22T08:02:29.076Z,13.60
2018-06-22T08:04:56.633Z,13.70
2018-06-22T08:07:24.153Z,13.70
2018-06-22T08:09:51.690Z,13.70
2018-06-22T08:14:46.673Z,13.90
2018-06-22T08:17:14.240Z,13.90
2018-06-22T08:19:41.796Z,13.90
2018-06-22T08:22:09.302Z,14.00
2018-06-22T08:24:36.855Z,14.00
2018-06-22T08:27:04.463Z,14.00
2018-06-22T08:29:31.991Z,14.30
2018-06-22T08:31:59.858Z,14.00
2018-06-22T08:34:27.442Z,13.90
2018-06-22T08:36:55.007Z,13.90
2018-06-22T08:39:22.545Z,14.40
2018-06-22T08:41:50.199Z,14.50
2018-06-22T08:44:19.042Z,14.40
2018-06-22T08:46:46.576Z,14.40
2018-06-22T08:49:14.665Z,14.50
2018-06-22T08:51:42.208Z,14.10
2018-06-22T08:54:09.948Z,14.20
2018-06-22T08:56:37.489Z,14.90
2018-06-22T08:59:04.996Z,15.00
2018-06-22T09:01:32.589Z,14.70
2018-06-22T09:04:00.104Z,14.90
2018-06-22T09:06:27.666Z,15.30
2018-06-22T09:08:55.175Z,15.50
2018-06-22T09:11:22.753Z,15.20
2018-06-22T09:13:50.270Z,15.20
2018-06-22T09:16:18.289Z,15.30
2018-06-22T09:18:45.820Z,15.20
2018-06-22T09:21:13.363Z,15.80
2018-06-22T09:23:40.872Z,15.40
2018-06-22T09:26:08.801Z,15.70
2018-06-22T09:28:36.321Z,16.00
2018-06-22T09:31:04.689Z,15.30
2018-06-22T09:33:32.251Z,15.30
2018-06-22T09:36:00.748Z,15.10
2018-06-22T09:38:28.271Z,15.00
2018-06-22T09:40:56.032Z,15.10
2018-06-22T09:43:23.587Z,15.40
2018-06-22T09:45:51.133Z,15.80
2018-06-22T09:48:18.843Z,15.80
2018-06-22T09:50:46.582Z,15.50
2018-06-22T09:53:14.109Z,15.40
2018-06-22T09:55:41.636Z,15.00
2018-06-22T09:58:09.176Z,14.60
2018-06-22T10:00:36.696Z,14.60
2018-06-22T10:03:04.241Z,14.60
2018-06-22T10:05:31.792Z,14.70
2018-06-22T10:07:59.325Z,14.50
2018-06-22T10:10:26.876Z,14.50
2018-06-22T10:12:54.619Z,14.40
2018-06-22T10:15:22.159Z,14.40
2018-06-22T10:17:49.688Z,14.30
2018-06-22T10:20:17.205Z,14.20
2018-06-22T10:22:44.841Z,14.20
2018-06-22T10:25:12.372Z,14.30
2018-06-22T10:27:40.022Z,14.20
2018-06-22T10:30:07.572Z,14.10
2018-06-22T10:32:35.116Z,14.10
2018-06-22T10:35:03.342Z,13.90
2018-06-22T10:37:30.913Z,13.70
2018-06-22T10:39:58.520Z,14.00
2018-06-22T10:42:26.148Z,14.30
2018-06-22T10:44:53.711Z,14.40
2018-06-22T10:47:21.313Z,14.80
2018-06-22T10:49:48.868Z,15.10
2018-06-22T10:52:16.454Z,15.10
2018-06-22T10:54:43.969Z,14.70
2018-06-22T10:57:11.607Z,14.90
2018-06-22T10:59:39.163Z,14.80
2018-06-22T11:02:06.777Z,14.70
2018-06-22T11:04:34.333Z,15.10
2018-06-22T11:07:01.897Z,15.80
2018-06-22T11:09:29.422Z,16.40
2018-06-22T11:11:57.488Z,17.00
2018-06-22T11:14:25.243Z,17.00
2018-06-22T11:16:52.876Z,16.30
2018-06-22T11:19:20.402Z,16.20
2018-06-22T11:21:48.572Z,16.30
2018-06-22T11:24:16.103Z,15.90
2018-06-22T11:26:43.789Z,15.90
2018-06-22T11:29:11.321Z,15.60
2018-06-22T11:31:38.873Z,15.40
2018-06-22T11:34:06.412Z,15.40
2018-06-22T11:36:33.946Z,15.30
2018-06-22T11:39:01.493Z,15.20
2018-06-22T11:41:29.630Z,15.30
2018-06-22T11:43:57.212Z,15.40
2018-06-22T11:46:24.740Z,15.50
2018-06-22T11:48:52.316Z,15.30
2018-06-22T11:51:19.885Z,15.50
2018-06-22T11:53:48.044Z,15.80
2018-06-22T11:56:15.586Z,16.40
2018-06-22T11:58:43.139Z,16.70
2018-06-22T12:01:10.680Z,16.90
2018-06-22T12:03:38.225Z,16.60
2018-06-22T12:06:05.764Z,15.80
2018-06-22T12:08:33.368Z,15.80
2018-06-22T12:11:00.869Z,15.70
2018-06-22T12:13:28.488Z,16.20
2018-06-22T12:15:56.028Z,16.50
2018-06-22T12:18:23.565Z,16.60
2018-06-22T12:20:51.078Z,17.30
2018-06-22T12:23:18.630Z,17.10
2018-06-22T12:25:46.172Z,16.60
2018-06-22T12:28:13.700Z,16.40
2018-06-22T12:30:41.230Z,16.10
2018-06-22T12:33:08.827Z,16.70
2018-06-22T12:35:36.324Z,16.80
2018-06-22T12:38:03.935Z,16.90
2018-06-22T12:40:31.525Z,16.00
2018-06-22T12:42:59.112Z,16.30
2018-06-22T12:45:26.800Z,16.00
2018-06-22T12:47:54.359Z,16.40
2018-06-22T12:50:21.889Z,17.00
2018-06-22T12:52:49.412Z,18.20
2018-06-22T12:55:16.955Z,18.10
2018-06-22T12:57:44.490Z,17.30
2018-06-22T13:00:12.057Z,17.40
2018-06-22T13:02:39.561Z,17.10
2018-06-22T13:05:07.836Z,18.30
2018-06-22T13:07:35.359Z,17.10
2018-06-22T13:10:03.433Z,17.00
2018-06-22T13:12:31.026Z,16.80
2018-06-22T13:14:59.616Z,16.70
2018-06-22T13:17:27.131Z,17.80
2018-06-22T13:19:54.690Z,18.50
2018-06-22T13:22:22.208Z,17.10
2018-06-22T13:24:49.744Z,17.00
2018-06-22T13:27:17.572Z,16.90
2018-06-22T13:29:45.395Z,16.70
2018-06-22T13:32:12.921Z,16.90
2018-06-22T13:34:40.452Z,17.50
2018-06-22T13:37:08.042Z,17.30
2018-06-22T13:39:35.629Z,17.60
2018-06-22T13:42:03.161Z,18.10
2018-06-22T13:44:30.721Z,17.40
2018-06-22T13:46:58.273Z,18.90
2018-06-22T13:49:25.842Z,19.70
2018-06-22T13:51:53.372Z,19.40
2018-06-22T13:54:20.930Z,18.10
2018-06-22T13:56:48.474Z,17.20
2018-06-22T13:59:16.037Z,16.80
2018-06-22T14:01:43.560Z,16.80
2018-06-22T14:04:16.923Z,16.50
2018-06-22T14:06:51.580Z,16.30
2018-06-22T14:09:19.202Z,16.40
2018-06-22T14:11:46.732Z,16.80
2018-06-22T14:14:14.327Z,17.10
2018-06-22T14:16:42.071Z,16.90
2018-06-22T14:19:09.681Z,17.10
2018-06-22T14:21:37.497Z,18.00
2018-06-22T14:24:06.096Z,18.40
2018-06-22T14:26:33.661Z,18.00
2018-06-22T14:29:01.220Z,18.50
2018-06-22T14:31:28.970Z,18.20
2018-06-22T14:33:56.609Z,17.40
2018-06-22T14:36:24.428Z,17.30
2018-06-22T14:38:52.157Z,17.80
2018-06-22T14:41:42.330Z,17.50
2018-06-22T14:44:15.222Z,17.80
2018-06-22T14:47:08.811Z,18.50
2018-06-22T14:49:38.174Z,18.70
2018-06-22T14:52:18.595Z,18.20
2018-06-22T14:58:15.825Z,17.30
2018-06-22T15:00:58.585Z,17.10
2018-06-22T15:03:55.413Z,17.20
2018-06-22T15:07:00.998Z,16.90
2018-06-22T15:09:39.391Z,16.80
2018-06-22T15:12:14.639Z,16.70
2018-06-22T15:21:46.464Z,17.20
2018-06-22T15:24:24.248Z,17.40
2018-06-22T15:26:55.829Z,17.50
2018-06-22T15:29:23.401Z,17.80
2018-06-22T15:32:01.361Z,17.90
2018-06-22T15:34:47.646Z,17.50
2018-06-22T15:37:33.443Z,17.50
2018-06-22T15:40:36.954Z,17.40
2018-06-22T15:46:10.148Z,17.20
2018-06-22T15:52:04.150Z,17.10
2018-06-22T15:58:38.903Z,17.00
2018-06-22T16:01:25.184Z,16.80
2018-06-22T16:04:14.189Z,16.80
2018-06-22T16:07:02.621Z,17.00
2018-06-22T16:10:27.672Z,17.30
2018-06-22T16:13:11.880Z,17.20
2018-06-22T16:15:48.214Z,17.20
2018-06-22T16:18:35.093Z,17.50
2018-06-22T16:27:07.117Z,17.50
2018-06-22T16:29:41.281Z,17.00
2018-06-22T16:32:20.282Z,16.30
2018-06-22T16:35:16.312Z,16.20
2018-06-22T16:38:14.710Z,16.20
2018-06-22T16:41:09.085Z,16.30
2018-06-22T16:43:54.577Z,16.30
2018-06-22T16:46:32.404Z,16.50
2018-06-22T16:49:25.024Z,16.40
2018-06-22T16:51:52.614Z,16.60
2018-06-22T16:54:36.218Z,16.70
2018-06-22T16:57:21.701Z,16.70
2018-06-22T17:00:26.456Z,16.70
2018-06-22T17:02:54.059Z,16.30
2018-06-22T17:05:21.597Z,16.20
2018-06-22T17:07:55.194Z,16.30
2018-06-22T17:10:28.473Z,16.30
2018-06-22T17:13:01.788Z,16.10
2018-06-22T17:15:35.033Z,16.10
2018-06-22T17:18:08.641Z,16.10
2018-06-22T17:20:36.268Z,16.10
2018-06-22T17:23:03.980Z,16.40
2018-06-22T17:25:31.529Z,16.30
2018-06-22T17:27:59.283Z,16.10
2018-06-22T17:30:26.950Z,16.10
2018-06-22T17:32:54.609Z,16.10
2018-06-22T17:35:22.394Z,16.10
2018-06-22T17:37:50.041Z,16.10
2018-06-22T17:40:17.856Z,16.20
2018-06-22T17:42:45.773Z,16.30
2018-06-22T17:45:13.444Z,16.20
2018-06-22T17:47:41.079Z,16.10
2018-06-22T17:50:14.294Z,16.10
2018-06-22T17:52:41.901Z,16.00
2018-06-22T17:55:09.593Z,16.10
2018-06-22T17:57:37.213Z,16.20
2018-06-22T18:00:10.515Z,16.00
2018-06-22T18:02:43.799Z,15.90
2018-06-22T18:05:17.140Z,15.80
2018-06-22T18:07:46.587Z,15.80
2018-06-22T18:10:19.901Z,15.70
2018-06-22T18:12:54.553Z,15.60
2018-06-22T18:15:22.580Z,15.50
2018-06-22T18:17:50.287Z,15.40
2018-06-22T18:20:18.775Z,15.30
2018-06-22T18:22:46.553Z,15.30
2018-06-22T18:25:14.672Z,15.20
2018-06-22T18:27:42.406Z,15.10
2018-06-22T18:30:13.264Z,15.00
2018-06-22T18:32:40.950Z,15.00
2018-06-22T18:35:10.425Z,14.80
2018-06-22T18:37:37.958Z,14.70
2018-06-22T18:40:06.109Z,14.60
2018-06-22T18:42:33.888Z,14.50
2018-06-22T18:45:01.457Z,14.30
2018-06-22T18:47:29.017Z,14.20
2018-06-22T18:49:56.617Z,14.00
2018-06-22T18:52:29.741Z,13.90
2018-06-22T18:55:03.018Z,13.80
2018-06-22T18:57:36.449Z,13.80
2018-06-22T19:00:09.982Z,13.60
2018-06-22T19:02:43.270Z,13.70
2018-06-22T19:05:10.916Z,13.50
2018-06-22T19:07:38.511Z,13.40
2018-06-22T19:10:06.124Z,13.30
2018-06-22T19:12:33.796Z,13.20
2018-06-22T19:15:01.385Z,13.20
2018-06-22T19:17:28.966Z,13.10
2018-06-22T19:19:56.561Z,13.00
2018-06-22T19:22:24.741Z,12.90
2018-06-22T19:24:52.939Z,12.90
2018-06-22T19:27:20.512Z,12.90
2018-06-22T19:29:48.211Z,12.90
2018-06-22T19:32:15.813Z,12.80
2018-06-22T19:34:48.936Z,12.80
2018-06-22T19:37:16.585Z,12.70
2018-06-22T19:39:44.168Z,12.70
2018-06-22T19:42:11.914Z,12.60
2018-06-22T19:44:45.106Z,12.50
2018-06-22T19:47:18.312Z,12.20
2018-06-22T19:49:51.636Z,12.10
2018-06-22T19:52:24.952Z,12.00
2018-06-22T19:54:52.713Z,11.90
2018-06-22T19:57:21.070Z,11.80
2018-06-22T19:59:48.977Z,11.70
2018-06-22T20:02:16.760Z,11.60
2018-06-22T20:04:44.355Z,11.50
2018-06-22T20:07:12.195Z,11.50
2018-06-22T20:09:40.101Z,11.40
2018-06-22T20:12:08.248Z,11.20
2018-06-22T20:14:35.869Z,11.20
2018-06-22T20:17:03.458Z,11.00
2018-06-22T20:19:32.193Z,10.90
2018-06-22T20:21:59.792Z,10.90
2018-06-22T20:24:33.109Z,10.80
2018-06-22T20:27:00.813Z,10.70
2018-06-22T20:29:28.521Z,10.60
2018-06-22T20:31:56.192Z,10.60
2018-06-22T20:34:29.459Z,10.50
2018-06-22T20:37:02.806Z,10.50
2018-06-22T20:39:36.139Z,10.30
2018-06-22T20:42:09.717Z,10.20
2018-06-22T20:44:42.999Z,10.30
2018-06-22T20:47:16.328Z,10.20
2018-06-22T20:49:49.797Z,10.20
2018-06-22T20:52:17.385Z,10.10
2018-06-22T20:54:45.026Z,10.00
2018-06-22T20:57:12.805Z,9.90
2018-06-22T20:59:40.386Z,9.90
2018-06-22T21:02:08.177Z,9.80
2018-06-22T21:04:35.867Z,9.80
2018-06-22T21:07:04.609Z,9.80
2018-06-22T21:09:32.300Z,9.80
2018-06-22T21:12:00.185Z,9.70
2018-06-22T21:14:28.482Z,9.60
2018-06-22T21:16:56.288Z,9.50
2018-06-22T21:19:24.054Z,9.40
2018-06-22T21:21:57.232Z,9.30
2018-06-22T21:24:24.833Z,9.30
2018-06-22T21:26:52.418Z,9.40
2018-06-22T21:29:25.672Z,9.50
2018-06-22T21:31:58.965Z,9.30
2018-06-22T21:34:31.676Z,9.30
2018-06-22T21:37:04.965Z,9.30
2018-06-22T21:39:32.604Z,9.40
2018-06-22T21:42:00.140Z,9.40
2018-06-22T21:44:27.717Z,9.50
2018-06-22T21:46:55.312Z,9.50
2018-06-22T21:49:22.887Z,9.50
2018-06-22T21:51:50.420Z,9.60
2018-06-22T21:54:18.017Z,9.50
2018-06-22T21:56:45.569Z,9.40
2018-06-22T22:02:44.142Z,9.40
2018-06-22T22:05:11.768Z,9.30
2018-06-22T22:07:39.308Z,9.20
2018-06-22T22:10:06.901Z,9.20
2018-06-22T22:12:34.465Z,9.10
2018-06-22T22:15:02.025Z,9.00
2018-06-22T22:17:29.591Z,9.20
2018-06-22T22:19:57.163Z,9.20
2018-06-22T22:22:24.693Z,9.10
2018-06-22T22:24:52.258Z,9.00
2018-06-22T22:27:19.821Z,9.10
2018-06-22T22:29:47.930Z,8.90
2018-06-22T22:32:15.504Z,8.70
2018-06-22T22:34:43.049Z,8.80
2018-06-22T22:37:10.572Z,8.70
2018-06-22T22:39:38.146Z,8.60
2018-06-22T22:42:05.688Z,8.70
2018-06-22T22:44:33.249Z,8.80
2018-06-22T22:47:00.790Z,8.80
2018-06-22T22:49:28.718Z,8.80
2018-06-22T22:51:56.248Z,8.70
2018-06-22T22:54:24.362Z,8.80
2018-06-22T22:56:51.905Z,8.80
2018-06-22T22:59:19.460Z,8.80
2018-06-22T23:01:46.997Z,8.70
2018-06-22T23:04:14.646Z,8.30
2018-06-22T23:06:42.200Z,8.40
2018-06-22T23:09:10.149Z,8.50
2018-06-22T23:11:37.905Z,8.50
2018-06-22T23:14:05.539Z,8.50
2018-06-22T23:16:33.246Z,8.60
2018-06-22T23:19:00.860Z,8.50
2018-06-22T23:21:28.470Z,8.50
2018-06-22T23:23:56.036Z,8.50
2018-06-22T23:26:23.645Z,8.50
2018-06-22T23:31:18.654Z,8.10
2018-06-22T23:33:46.241Z,8.00
2018-06-22T23:36:13.798Z,8.10
2018-06-22T23:38:41.329Z,8.10
2018-06-22T23:41:08.980Z,8.10
2018-06-22T23:43:36.508Z,8.10
2018-06-22T23:46:04.100Z,8.00
2018-06-22T23:48:31.642Z,8.00
2018-06-22T23:50:59.217Z,7.90
2018-06-22T23:53:26.768Z,7.90
2018-06-22T23:55:54.341Z,7.90
2018-06-22T23:58:22.235Z,7.80
